sensor_id;sensor_type;location;lat;lon;timestamp;P1;durP1;ratioP1;P2;durP2;ratioP2
6926;SDS011;3503;50.07605000;8.86719200;2022-09-30T00:09:16;3.00;;;1.60;;
6926;SDS011;3503;50.07605000;8.86719200;2022-09-30T00:24:19;5.93;;;2.80;;
6926;SDS011;3503;50.07605000;8.86719200;2022-09-30T00:39:23;7.30;;;2.63;;
6926;SDS011;3503;50.07605000;8.86719200;2022-09-30T00:54:27;4.30;;;2.13;;
6926;SDS011;3503;50.07605000;8.86719200;2022-09-30T01:09:31;5.97;;;2.20;;
6926;SDS011;3503;50.07605000;8.86719200;2022-09-30T01:40:04;3.30;;;1.80;;
6926;SDS011;3503;50.07605000;8.86719200;2022-09-30T01:55:10;3.70;;;2.00;;
6926;SDS011;3503;50.07605000;8.86719200;2022-09-30T02:10:16;4.80;;;2.27;;
6926;SDS011;3503;50.07605000;8.86719200;2022-09-30T02:25:24;5.27;;;2.40;;
6926;SDS011;3503;50.07605000;8.86719200;2022-09-30T02:40:30;5.97;;;2.13;;
6926;SDS011;3503;50.07605000;8.86719200;2022-09-30T02:55:39;28.37;;;3.73;;
6926;SDS011;3503;50.07605000;8.86719200;2022-09-30T03:10:50;6.43;;;4.00;;
6926;SDS011;3503;50.07605000;8.86719200;2022-09-30T03:25:55;8.20;;;3.30;;
6926;SDS011;3503;50.07605000;8.86719200;2022-09-30T03:41:03;9.17;;;3.50;;
6926;SDS011;3503;50.07605000;8.86719200;2022-09-30T03:56:13;6.43;;;3.10;;
6926;SDS011;3503;50.07605000;8.86719200;2022-09-30T04:11:18;7.53;;;2.67;;
6926;SDS011;3503;50.07605000;8.86719200;2022-09-30T04:26:21;6.40;;;2.67;;
6926;SDS011;3503;50.07605000;8.86719200;2022-09-30T04:41:24;11.10;;;3.37;;
6926;SDS011;3503;50.07605000;8.86719200;2022-09-30T04:56:27;10.37;;;2.30;;
6926;SDS011;3503;50.07605000;8.86719200;2022-09-30T05:11:29;6.13;;;2.13;;
6926;SDS011;3503;50.07605000;8.86719200;2022-09-30T05:26:32;11.43;;;3.40;;
6926;SDS011;3503;50.07605000;8.86719200;2022-09-30T05:41:35;9.70;;;3.50;;
6926;SDS011;3503;50.07605000;8.86719200;2022-09-30T05:56:38;11.13;;;5.10;;
6926;SDS011;3503;50.07605000;8.86719200;2022-09-30T06:11:41;7.90;;;4.00;;
6926;SDS011;3503;50.07605000;8.86719200;2022-09-30T06:26:44;6.87;;;4.00;;
6926;SDS011;3503;50.07605000;8.86719200;2022-09-30T06:41:47;5.80;;;3.13;;
6926;SDS011;3503;50.07605000;8.86719200;2022-09-30T06:56:49;6.10;;;3.43;;
6926;SDS011;3503;50.07605000;8.86719200;2022-09-30T07:11:53;5.57;;;3.23;;
6926;SDS011;3503;50.07605000;8.86719200;2022-09-30T07:26:56;7.53;;;3.07;;
6926;SDS011;3503;50.07605000;8.86719200;2022-09-30T07:42:00;7.40;;;3.83;;
6926;SDS011;3503;50.07605000;8.86719200;2022-09-30T07:57:04;8.00;;;3.63;;
6926;SDS011;3503;50.07605000;8.86719200;2022-09-30T08:12:07;6.93;;;4.13;;
6926;SDS011;3503;50.07605000;8.86719200;2022-09-30T08:27:10;7.90;;;4.23;;
6926;SDS011;3503;50.07605000;8.86719200;2022-09-30T08:42:25;6.23;;;4.17;;
6926;SDS011;3503;50.07605000;8.86719200;2022-09-30T08:57:35;4.30;;;2.97;;
6926;SDS011;3503;50.07605000;8.86719200;2022-09-30T09:12:40;12.47;;;4.27;;
6926;SDS011;3503;50.07605000;8.86719200;2022-09-30T09:27:48;6.03;;;4.03;;
6926;SDS011;3503;50.07605000;8.86719200;2022-09-30T09:42:56;4.87;;;3.00;;
6926;SDS011;3503;50.07605000;8.86719200;2022-09-30T09:58:08;3.93;;;2.80;;
6926;SDS011;3503;50.07605000;8.86719200;2022-09-30T10:13:18;4.97;;;2.83;;
6926;SDS011;3503;50.07605000;8.86719200;2022-09-30T10:28:24;3.20;;;2.30;;
6926;SDS011;3503;50.07605000;8.86719200;2022-09-30T10:43:29;5.30;;;1.60;;
6926;SDS011;3503;50.07605000;8.86719200;2022-09-30T10:58:40;6.23;;;3.27;;
6926;SDS011;3503;50.07605000;8.86719200;2022-09-30T11:13:47;4.27;;;1.87;;
6926;SDS011;3503;50.07605000;8.86719200;2022-09-30T11:29:00;2.10;;;1.30;;
6926;SDS011;3503;50.07605000;8.86719200;2022-09-30T11:44:12;1.83;;;0.67;;
6926;SDS011;3503;50.07605000;8.86719200;2022-09-30T11:59:22;1.57;;;0.60;;
6926;SDS011;3503;50.07605000;8.86719200;2022-09-30T12:14:29;1.90;;;0.80;;
6926;SDS011;3503;50.07605000;8.86719200;2022-09-30T12:29:37;3.03;;;1.10;;
6926;SDS011;3503;50.07605000;8.86719200;2022-09-30T13:00:33;6.60;;;0.83;;
6926;SDS011;3503;50.07605000;8.86719200;2022-09-30T13:15:39;9.57;;;1.10;;
6926;SDS011;3503;50.07605000;8.86719200;2022-09-30T13:30:44;2.13;;;0.60;;
6926;SDS011;3503;50.07605000;8.86719200;2022-09-30T13:45:47;2.33;;;0.80;;
6926;SDS011;3503;50.07605000;8.86719200;2022-09-30T14:00:53;6.00;;;1.00;;
6926;SDS011;3503;50.07605000;8.86719200;2022-09-30T14:16:11;2.07;;;0.87;;
6926;SDS011;3503;50.07605000;8.86719200;2022-09-30T14:31:42;2.33;;;1.07;;
6926;SDS011;3503;50.07605000;8.86719200;2022-09-30T14:46:45;5.90;;;1.00;;
6926;SDS011;3503;50.07605000;8.86719200;2022-09-30T15:01:50;1.73;;;0.80;;
6926;SDS011;3503;50.07605000;8.86719200;2022-09-30T15:16:56;4.10;;;1.00;;
6926;SDS011;3503;50.07605000;8.86719200;2022-09-30T15:32:00;1.80;;;0.73;;
6926;SDS011;3503;50.07605000;8.86719200;2022-09-30T15:47:05;4.00;;;2.00;;
6926;SDS011;3503;50.07605000;8.86719200;2022-09-30T16:02:09;3.03;;;1.33;;
6926;SDS011;3503;50.07605000;8.86719200;2022-09-30T16:17:15;2.87;;;0.97;;
6926;SDS011;3503;50.07605000;8.86719200;2022-09-30T16:32:20;3.37;;;1.40;;
6926;SDS011;3503;50.07605000;8.86719200;2022-09-30T16:47:23;3.40;;;1.80;;
6926;SDS011;3503;50.07605000;8.86719200;2022-09-30T17:02:26;7.13;;;1.43;;
6926;SDS011;3503;50.07605000;8.86719200;2022-09-30T17:17:29;4.10;;;1.30;;
6926;SDS011;3503;50.07605000;8.86719200;2022-09-30T17:32:32;2.07;;;1.13;;
6926;SDS011;3503;50.07605000;8.86719200;2022-09-30T17:47:35;5.77;;;1.40;;
6926;SDS011;3503;50.07605000;8.86719200;2022-09-30T18:02:41;2.77;;;1.50;;
6926;SDS011;3503;50.07605000;8.86719200;2022-09-30T18:17:45;5.03;;;2.73;;
6926;SDS011;3503;50.07605000;8.86719200;2022-09-30T18:32:48;8.07;;;3.07;;
6926;SDS011;3503;50.07605000;8.86719200;2022-09-30T18:47:53;3.10;;;1.77;;
6926;SDS011;3503;50.07605000;8.86719200;2022-09-30T19:02:57;7.03;;;2.43;;
6926;SDS011;3503;50.07605000;8.86719200;2022-09-30T19:17:59;8.93;;;4.13;;
6926;SDS011;3503;50.07605000;8.86719200;2022-09-30T19:33:02;19.30;;;9.20;;
6926;SDS011;3503;50.07605000;8.86719200;2022-09-30T19:48:05;12.00;;;6.17;;
6926;SDS011;3503;50.07605000;8.86719200;2022-09-30T20:03:08;12.17;;;6.10;;
6926;SDS011;3503;50.07605000;8.86719200;2022-09-30T20:18:11;10.90;;;5.80;;
6926;SDS011;3503;50.07605000;8.86719200;2022-09-30T20:33:15;9.30;;;4.50;;
6926;SDS011;3503;50.07605000;8.86719200;2022-09-30T20:48:19;9.20;;;5.10;;
6926;SDS011;3503;50.07605000;8.86719200;2022-09-30T21:03:22;9.23;;;5.53;;
6926;SDS011;3503;50.07605000;8.86719200;2022-09-30T21:18:25;9.27;;;4.83;;
6926;SDS011;3503;50.07605000;8.86719200;2022-09-30T21:33:27;8.97;;;5.17;;
6926;SDS011;3503;50.07605000;8.86719200;2022-09-30T21:48:30;8.47;;;4.53;;
6926;SDS011;3503;50.07605000;8.86719200;2022-09-30T22:03:35;9.43;;;6.13;;
6926;SDS011;3503;50.07605000;8.86719200;2022-09-30T22:18:38;9.57;;;5.00;;
6926;SDS011;3503;50.07605000;8.86719200;2022-09-30T22:33:41;7.53;;;4.80;;
6926;SDS011;3503;50.07605000;8.86719200;2022-09-30T22:49:02;5.03;;;3.77;;
6926;SDS011;3503;50.07605000;8.86719200;2022-09-30T23:04:05;8.60;;;3.90;;
6926;SDS011;3503;50.07605000;8.86719200;2022-09-30T23:19:08;6.80;;;4.10;;
6926;SDS011;3503;50.07605000;8.86719200;2022-09-30T23:34:11;7.30;;;4.00;;
6926;SDS011;3503;50.07605000;8.86719200;2022-09-30T23:49:14;6.73;;;3.90;;
